createdAt,value
2023-03-06T00:00:48.653Z,1.54
2023-03-06T00:01:47.992Z,1.54
2023-03-06T00:02:47.367Z,1.58
2023-03-06T00:03:47.824Z,1.60
2023-03-06T00:04:47.665Z,1.60
2023-03-06T00:05:50.781Z,1.58
2023-03-06T00:06:50.635Z,1.58
2023-03-06T00:07:48.511Z,1.58
2023-03-06T00:08:48.886Z,1.61
2023-03-06T00:09:49.147Z,1.62
2023-03-06T00:10:49.455Z,1.64
2023-03-06T00:11:50.785Z,1.65
2023-03-06T00:12:50.109Z,1.65
2023-03-06T00:13:51.424Z,1.65
2023-03-06T00:14:52.460Z,1.64
2023-03-06T00:15:51.192Z,1.65
2023-03-06T00:16:51.185Z,1.65
2023-03-06T00:17:52.482Z,1.68
2023-03-06T00:18:53.804Z,1.69
2023-03-06T00:19:52.365Z,1.71
2023-03-06T00:20:53.629Z,1.72
2023-03-06T00:21:52.466Z,1.75
2023-03-06T00:22:52.802Z,1.78
2023-03-06T00:23:54.062Z,1.78
2023-03-06T00:24:54.365Z,1.80
2023-03-06T00:25:55.521Z,1.82
2023-03-06T00:26:53.912Z,1.85
2023-03-06T00:27:55.211Z,1.89
2023-03-06T00:28:54.310Z,1.89
2023-03-06T00:29:54.686Z,1.87
2023-03-06T00:30:55.127Z,1.87
2023-03-06T00:31:58.337Z,1.87
2023-03-06T00:32:55.791Z,1.89
2023-03-06T00:33:56.181Z,1.89
2023-03-06T00:34:58.050Z,1.90
2023-03-06T00:35:59.035Z,1.90
2023-03-06T00:36:58.335Z,1.91
2023-03-06T00:37:57.639Z,1.91
2023-03-06T00:38:59.968Z,1.90
2023-03-06T00:39:58.440Z,1.90
2023-03-06T00:40:58.800Z,1.89
2023-03-06T00:41:59.083Z,1.90
2023-03-06T00:42:59.484Z,1.87
2023-03-06T00:44:00.877Z,1.83
2023-03-06T00:45:00.190Z,1.85
2023-03-06T00:46:01.523Z,1.83
2023-03-06T00:47:00.910Z,1.85
2023-03-06T00:48:01.396Z,1.83
2023-03-06T00:49:01.690Z,1.80
2023-03-06T00:50:02.186Z,1.82
2023-03-06T00:51:03.603Z,1.80
2023-03-06T00:52:03.850Z,1.80
2023-03-06T00:53:04.134Z,1.80
2023-03-06T00:54:03.441Z,1.82
2023-03-06T00:55:06.030Z,1.85
2023-03-06T00:56:03.958Z,1.87
2023-03-06T00:57:04.063Z,1.87
2023-03-06T00:58:04.404Z,1.87
2023-03-06T00:59:04.791Z,1.85
2023-03-06T01:00:05.145Z,1.87
2023-03-06T01:01:07.489Z,1.87
2023-03-06T01:02:06.847Z,1.89
2023-03-06T01:03:08.184Z,1.89
2023-03-06T01:04:06.485Z,1.83
2023-03-06T01:05:08.261Z,1.83
2023-03-06T01:06:09.040Z,1.78
2023-03-06T01:07:07.454Z,1.75
2023-03-06T01:08:08.673Z,1.73
2023-03-06T01:09:08.128Z,1.71
2023-03-06T01:10:08.560Z,1.69
2023-03-06T01:11:08.418Z,1.64
2023-03-06T01:12:08.813Z,1.61
2023-03-06T01:13:09.223Z,1.60
2023-03-06T01:14:09.532Z,1.57
2023-03-06T01:15:09.898Z,1.57
2023-03-06T01:16:13.165Z,1.52
2023-03-06T01:17:12.468Z,1.54
2023-03-06T01:18:10.774Z,1.55
2023-03-06T01:19:11.085Z,1.57
2023-03-06T01:21:26.194Z,1.60
2023-03-06T01:22:26.096Z,1.61
2023-03-06T01:23:26.680Z,1.61
2023-03-06T01:24:28.513Z,1.64
2023-03-06T01:25:26.809Z,1.68
2023-03-06T01:26:27.114Z,1.69
2023-03-06T01:27:27.619Z,1.71
2023-03-06T01:28:27.527Z,1.72
2023-03-06T01:29:27.937Z,1.71
2023-03-06T01:30:28.196Z,1.72
2023-03-06T01:31:29.998Z,1.72
2023-03-06T01:32:30.951Z,1.73
2023-03-06T01:33:30.367Z,1.72
2023-03-06T01:34:30.014Z,1.72
2023-03-06T01:35:30.806Z,1.71
2023-03-06T01:37:30.488Z,1.72
2023-03-06T01:38:32.951Z,1.71
2023-03-06T01:39:31.122Z,1.71
2023-03-06T01:40:31.454Z,1.72
2023-03-06T01:41:31.820Z,1.72
2023-03-06T01:42:32.561Z,1.73
2023-03-06T01:43:33.162Z,1.72
2023-03-06T01:44:32.643Z,1.72
2023-03-06T01:45:32.531Z,1.75
2023-03-06T01:46:33.034Z,1.73
2023-03-06T01:47:32.947Z,1.75
2023-03-06T01:48:34.538Z,1.75
2023-03-06T01:49:34.521Z,1.76
2023-03-06T01:50:34.809Z,1.78
2023-03-06T01:51:33.616Z,1.78
2023-03-06T01:52:33.918Z,1.79
2023-03-06T01:53:34.219Z,1.82
2023-03-06T01:54:35.808Z,1.79
2023-03-06T01:55:34.839Z,1.80
2023-03-06T01:56:35.218Z,1.82
2023-03-06T01:57:35.357Z,1.83
2023-03-06T01:58:38.701Z,1.83
2023-03-06T01:59:36.471Z,1.83
2023-03-06T02:00:37.421Z,1.83
2023-03-06T02:01:38.533Z,1.85
2023-03-06T02:02:37.007Z,1.87
2023-03-06T02:03:38.430Z,1.87
2023-03-06T02:04:38.146Z,1.83
2023-03-06T02:05:39.392Z,1.85
2023-03-06T02:06:40.436Z,1.87
2023-03-06T02:07:37.938Z,1.89
2023-03-06T02:08:39.333Z,1.87
2023-03-06T02:09:38.854Z,1.89
2023-03-06T02:10:38.694Z,1.90
2023-03-06T02:11:39.086Z,1.89
2023-03-06T02:12:39.505Z,1.89
2023-03-06T02:13:43.044Z,1.87
2023-03-06T02:14:40.873Z,1.87
2023-03-06T02:15:40.129Z,1.87
2023-03-06T02:16:41.343Z,1.90
2023-03-06T02:17:40.288Z,1.91
2023-03-06T02:18:40.195Z,1.93
2023-03-06T02:19:40.551Z,1.93
2023-03-06T02:20:42.846Z,1.98
2023-03-06T02:21:41.330Z,1.99
2023-03-06T02:22:41.074Z,1.99
2023-03-06T02:23:41.394Z,2.02
2023-03-06T02:24:43.709Z,2.06
2023-03-06T02:25:42.934Z,2.06
2023-03-06T02:26:43.808Z,2.09
2023-03-06T02:27:43.658Z,2.10
2023-03-06T02:28:44.656Z,2.12
2023-03-06T02:29:43.432Z,2.15
2023-03-06T02:30:43.745Z,2.16
2023-03-06T02:31:44.566Z,2.17
2023-03-06T02:32:44.350Z,2.20
2023-03-06T02:33:44.654Z,2.20
2023-03-06T02:34:46.948Z,2.20
2023-03-06T02:35:46.344Z,2.22
2023-03-06T02:36:46.894Z,2.23
2023-03-06T02:37:46.637Z,2.26
2023-03-06T02:38:46.939Z,2.26
2023-03-06T02:39:46.826Z,2.26
2023-03-06T02:40:46.651Z,2.27
2023-03-06T02:41:48.880Z,2.28
2023-03-06T02:42:47.186Z,2.30
2023-03-06T02:43:47.614Z,2.31
2023-03-06T02:44:47.907Z,2.33
2023-03-06T02:45:48.334Z,2.35
2023-03-06T02:46:48.836Z,2.37
2023-03-06T02:47:48.614Z,2.37
2023-03-06T02:48:50.897Z,2.40
2023-03-06T02:49:50.126Z,2.40
2023-03-06T02:50:49.504Z,2.40
2023-03-06T02:51:51.897Z,2.38
2023-03-06T02:52:50.374Z,2.37
2023-03-06T02:53:51.741Z,2.41
2023-03-06T02:54:50.481Z,2.44
2023-03-06T02:55:50.893Z,2.45
2023-03-06T02:56:53.402Z,2.44
2023-03-06T02:57:51.176Z,2.44
2023-03-06T02:58:51.540Z,2.45
2023-03-06T02:59:51.896Z,2.46
2023-03-06T03:00:52.899Z,2.48
2023-03-06T03:01:52.323Z,2.48
2023-03-06T03:02:53.680Z,2.48
2023-03-06T03:03:55.086Z,2.48
2023-03-06T03:04:53.523Z,2.46
2023-03-06T03:05:55.867Z,2.46
2023-03-06T03:06:54.712Z,2.44
2023-03-06T03:07:54.087Z,2.41
2023-03-06T03:08:55.450Z,2.41
2023-03-06T03:09:54.790Z,2.41
2023-03-06T03:10:55.145Z,2.40
2023-03-06T03:11:55.464Z,2.40
2023-03-06T03:12:56.764Z,2.40
2023-03-06T03:13:56.013Z,2.38
2023-03-06T03:14:56.470Z,2.41
2023-03-06T03:15:57.976Z,2.37
2023-03-06T03:16:57.407Z,2.40
2023-03-06T03:17:56.890Z,2.41
2023-03-06T03:18:57.280Z,2.41
2023-03-06T03:19:58.507Z,2.41
2023-03-06T03:20:58.610Z,2.45
2023-03-06T03:21:57.988Z,2.45
2023-03-06T03:22:57.998Z,2.46
2023-03-06T03:23:58.283Z,2.48
2023-03-06T03:25:00.830Z,2.48
2023-03-06T03:25:59.923Z,2.49
2023-03-06T03:26:59.140Z,2.48
2023-03-06T03:27:59.281Z,2.46
2023-03-06T03:28:59.097Z,2.48
2023-03-06T03:29:59.469Z,2.45
2023-03-06T03:31:00.803Z,2.45
2023-03-06T03:32:00.228Z,2.44
2023-03-06T03:33:00.574Z,2.46
2023-03-06T03:34:01.784Z,2.44
2023-03-06T03:35:01.996Z,2.40
2023-03-06T03:36:02.600Z,2.41
2023-03-06T03:37:01.472Z,2.40
2023-03-06T03:38:03.344Z,2.40
2023-03-06T03:39:02.178Z,2.38
2023-03-06T03:40:03.480Z,2.40
2023-03-06T03:41:02.886Z,2.40
2023-03-06T03:42:06.000Z,2.40
2023-03-06T03:43:03.475Z,2.41
2023-03-06T03:44:03.552Z,2.40
2023-03-06T03:45:04.337Z,2.40
2023-03-06T03:46:04.655Z,2.38
2023-03-06T03:47:06.626Z,2.38
2023-03-06T03:48:04.919Z,2.40
2023-03-06T03:49:04.766Z,2.38
2023-03-06T03:50:05.413Z,2.38
2023-03-06T03:51:05.037Z,2.40
2023-03-06T03:52:05.746Z,2.38
2023-03-06T03:53:05.864Z,2.41
2023-03-06T03:54:06.091Z,2.44
2023-03-06T03:55:06.186Z,2.44
2023-03-06T03:56:06.351Z,2.45
2023-03-06T03:57:06.221Z,2.44
2023-03-06T03:58:07.095Z,2.45
2023-03-06T03:59:06.506Z,2.48
2023-03-06T04:00:07.620Z,2.48
2023-03-06T04:01:07.649Z,2.49
2023-03-06T04:02:08.731Z,2.52
2023-03-06T04:03:08.245Z,2.52
2023-03-06T04:04:07.820Z,2.51
2023-03-06T04:05:09.253Z,2.52
2023-03-06T04:06:08.321Z,2.53
2023-03-06T04:07:08.288Z,2.53
2023-03-06T04:08:07.807Z,2.52
2023-03-06T04:09:10.806Z,2.52
2023-03-06T04:10:08.662Z,2.53
2023-03-06T04:11:08.771Z,2.52
2023-03-06T04:12:09.351Z,2.53
2023-03-06T04:13:10.174Z,2.51
2023-03-06T04:14:09.568Z,2.53
2023-03-06T04:15:09.662Z,2.55
2023-03-06T04:16:09.949Z,2.56
2023-03-06T04:17:09.976Z,2.55
2023-03-06T04:18:10.529Z,2.55
2023-03-06T04:19:10.044Z,2.56
2023-03-06T04:20:11.350Z,2.56
2023-03-06T04:21:10.799Z,2.59
2023-03-06T04:22:11.499Z,2.58
2023-03-06T04:23:11.479Z,2.59
2023-03-06T04:24:11.561Z,2.59
2023-03-06T04:25:11.494Z,2.59
2023-03-06T04:26:12.410Z,2.58
2023-03-06T04:27:12.792Z,2.59
2023-03-06T04:28:13.463Z,2.58
2023-03-06T04:29:14.229Z,2.59
2023-03-06T04:30:12.619Z,2.59
2023-03-06T04:31:14.134Z,2.58
2023-03-06T04:32:13.153Z,2.58
2023-03-06T04:33:13.271Z,2.58
2023-03-06T04:34:15.152Z,2.58
2023-03-06T04:35:14.453Z,2.59
2023-03-06T04:36:15.731Z,2.59
2023-03-06T04:37:14.085Z,2.59
2023-03-06T04:38:16.354Z,2.59
2023-03-06T04:39:14.944Z,2.58
2023-03-06T04:40:14.799Z,2.58
2023-03-06T04:41:16.116Z,2.58
2023-03-06T04:42:15.403Z,2.58
2023-03-06T04:43:15.642Z,2.59
2023-03-06T04:44:16.966Z,2.59
2023-03-06T04:45:16.317Z,2.59
2023-03-06T04:46:17.009Z,2.61
2023-03-06T04:47:19.045Z,2.63
2023-03-06T04:48:17.971Z,2.64
2023-03-06T04:49:18.284Z,2.64
2023-03-06T04:50:18.645Z,2.66
2023-03-06T04:51:19.068Z,2.64
2023-03-06T04:52:20.510Z,2.67
2023-03-06T04:53:18.981Z,2.66
2023-03-06T04:54:19.209Z,2.66
2023-03-06T04:55:21.090Z,2.66
2023-03-06T04:56:20.342Z,2.64
2023-03-06T04:57:19.801Z,2.66
2023-03-06T04:58:20.753Z,2.66
2023-03-06T04:59:22.134Z,2.67
2023-03-06T05:00:20.962Z,2.67
2023-03-06T05:01:20.805Z,2.66
2023-03-06T05:02:22.155Z,2.66
2023-03-06T05:03:22.595Z,2.66
2023-03-06T05:04:22.046Z,2.69
2023-03-06T05:05:23.826Z,2.67
2023-03-06T05:06:24.125Z,2.70
2023-03-06T05:07:22.453Z,2.70
2023-03-06T05:08:25.347Z,2.70
2023-03-06T05:09:25.077Z,2.73
2023-03-06T05:10:26.294Z,2.74
2023-03-06T05:11:24.555Z,2.76
2023-03-06T05:12:25.950Z,2.74
2023-03-06T05:13:25.226Z,2.71
2023-03-06T05:14:24.618Z,2.71
2023-03-06T05:15:25.898Z,2.73
2023-03-06T05:16:25.262Z,2.70
2023-03-06T05:17:27.552Z,2.70
2023-03-06T05:18:27.422Z,2.70
2023-03-06T05:19:28.213Z,2.70
2023-03-06T05:20:26.589Z,2.69
2023-03-06T05:21:26.975Z,2.69
2023-03-06T05:22:27.352Z,2.69
2023-03-06T05:23:27.713Z,2.69
2023-03-06T05:24:29.218Z,2.71
2023-03-06T05:25:29.040Z,2.71
2023-03-06T05:26:29.836Z,2.69
2023-03-06T05:27:28.818Z,2.70
2023-03-06T05:28:29.142Z,2.70
2023-03-06T05:29:29.595Z,2.70
2023-03-06T05:30:30.461Z,2.69
2023-03-06T05:31:29.972Z,2.67
2023-03-06T05:32:30.852Z,2.69
2023-03-06T05:33:30.210Z,2.69
2023-03-06T05:34:30.617Z,2.70
2023-03-06T05:35:31.014Z,2.71
2023-03-06T05:36:39.932Z,2.71
2023-03-06T05:37:31.551Z,2.70
2023-03-06T05:38:32.842Z,2.70
2023-03-06T05:39:31.789Z,2.70
2023-03-06T05:40:32.390Z,2.69
2023-03-06T05:41:32.302Z,2.66
2023-03-06T05:42:33.662Z,2.64
2023-03-06T05:43:33.138Z,2.63
2023-03-06T05:44:33.926Z,2.63
2023-03-06T05:45:33.424Z,2.59
2023-03-06T05:46:33.312Z,2.61
2023-03-06T05:47:33.682Z,2.58
2023-03-06T05:48:36.068Z,2.58
2023-03-06T05:49:34.399Z,2.56
2023-03-06T05:50:34.733Z,2.58
2023-03-06T05:51:34.778Z,2.55
2023-03-06T05:52:35.080Z,2.56
2023-03-06T05:53:37.749Z,2.56
2023-03-06T05:54:36.542Z,2.56
2023-03-06T05:55:37.778Z,2.58
2023-03-06T05:56:36.574Z,2.58
2023-03-06T05:57:38.945Z,2.56
2023-03-06T05:58:38.061Z,2.56
2023-03-06T05:59:36.542Z,2.58
2023-03-06T06:00:36.946Z,2.58
2023-03-06T06:01:39.573Z,2.56
2023-03-06T06:02:37.528Z,2.58
2023-03-06T06:03:38.859Z,2.58
2023-03-06T06:04:38.360Z,2.59
2023-03-06T06:05:39.827Z,2.58
2023-03-06T06:06:45.203Z,2.59
2023-03-06T06:07:39.132Z,2.61
2023-03-06T06:08:40.648Z,2.63
2023-03-06T06:09:40.708Z,2.64
2023-03-06T06:10:39.682Z,2.67
2023-03-06T06:11:39.979Z,2.69
2023-03-06T06:12:39.931Z,2.70
2023-03-06T06:13:41.423Z,2.74
2023-03-06T06:14:40.394Z,2.79
2023-03-06T06:15:40.646Z,2.81
2023-03-06T06:16:40.473Z,2.84
2023-03-06T06:17:41.930Z,2.85
2023-03-06T06:18:41.504Z,2.89
2023-03-06T06:19:41.037Z,2.89
2023-03-06T06:20:41.525Z,2.91
2023-03-06T06:21:43.732Z,2.89
2023-03-06T06:22:43.192Z,2.89
2023-03-06T06:23:45.268Z,2.91
2023-03-06T06:24:42.818Z,2.94
2023-03-06T06:25:45.229Z,2.94
2023-03-06T06:26:46.461Z,2.97
2023-03-06T06:27:45.073Z,3.00
2023-03-06T06:28:44.999Z,3.02
2023-03-06T06:29:44.744Z,3.05
2023-03-06T06:33:01.780Z,3.09
2023-03-06T06:33:46.342Z,3.10
2023-03-06T06:34:46.605Z,3.10
2023-03-06T06:35:47.014Z,3.15
2023-03-06T06:36:48.320Z,3.18
2023-03-06T06:37:51.203Z,3.18
2023-03-06T06:39:47.130Z,3.21
2023-03-06T06:41:33.001Z,3.23
2023-03-06T06:42:38.934Z,3.23
2023-03-06T06:43:20.554Z,3.25
2023-03-06T06:44:20.153Z,3.25
2023-03-06T06:45:06.486Z,3.25
2023-03-06T06:46:38.873Z,3.25
2023-03-06T06:47:25.347Z,3.25
2023-03-06T06:48:06.914Z,3.25
2023-03-06T06:49:07.780Z,3.27
2023-03-06T06:50:09.433Z,3.28
2023-03-06T06:51:11.433Z,3.28
2023-03-06T06:52:09.191Z,3.30
2023-03-06T06:53:09.844Z,3.31
2023-03-06T06:54:11.141Z,3.34
2023-03-06T06:55:09.747Z,3.33
2023-03-06T06:56:12.810Z,3.33
2023-03-06T06:57:12.994Z,3.28
2023-03-06T06:58:10.541Z,3.28
2023-03-06T06:59:16.638Z,3.27
2023-03-06T07:00:09.663Z,3.27
2023-03-06T07:01:10.167Z,3.27
2023-03-06T07:02:10.838Z,3.27
2023-03-06T07:03:10.661Z,3.27
2023-03-06T07:04:11.886Z,3.28
2023-03-06T07:05:11.590Z,3.30
2023-03-06T07:06:17.125Z,3.30
2023-03-06T07:07:18.447Z,3.31
2023-03-06T07:08:10.839Z,3.36
2023-03-06T07:09:11.113Z,3.40
2023-03-06T07:10:12.642Z,3.44
2023-03-06T07:11:12.102Z,3.46
2023-03-06T07:12:12.653Z,3.49
2023-03-06T07:13:11.653Z,3.52
2023-03-06T07:14:14.659Z,3.52
2023-03-06T07:15:19.729Z,3.53
2023-03-06T07:16:14.246Z,3.50
2023-03-06T07:17:16.324Z,3.49
2023-03-06T07:18:14.866Z,3.46
2023-03-06T07:20:14.441Z,3.44
2023-03-06T07:21:20.695Z,3.43
2023-03-06T07:22:17.616Z,3.39
2023-03-06T07:23:25.415Z,3.39
2023-03-06T07:24:22.705Z,3.40
2023-03-06T07:25:16.623Z,3.40
2023-03-06T07:26:16.495Z,3.40
2023-03-06T07:27:24.418Z,3.39
2023-03-06T07:28:18.537Z,3.42
2023-03-06T07:30:19.852Z,3.44
2023-03-06T07:32:27.146Z,3.49
2023-03-06T07:33:21.379Z,3.50
2023-03-06T07:34:22.779Z,3.54
2023-03-06T07:35:21.418Z,3.60
2023-03-06T07:36:31.709Z,3.65
2023-03-06T07:37:24.727Z,3.64
2023-03-06T07:38:21.039Z,3.64
2023-03-06T07:39:20.486Z,3.62
2023-03-06T07:40:20.242Z,3.62
2023-03-06T07:41:22.367Z,3.65
2023-03-06T07:42:21.503Z,3.65
2023-03-06T07:43:21.467Z,3.67
2023-03-06T07:44:22.454Z,3.70
2023-03-06T07:45:20.673Z,3.75
2023-03-06T07:46:23.668Z,3.76
2023-03-06T07:47:20.798Z,3.79
2023-03-06T07:48:23.153Z,3.82
2023-03-06T07:49:21.502Z,3.83
2023-03-06T07:50:24.888Z,3.89
2023-03-06T07:51:26.615Z,3.90
2023-03-06T07:52:25.466Z,3.94
2023-03-06T07:53:25.342Z,3.96
2023-03-06T07:54:23.057Z,3.94
2023-03-06T07:55:29.471Z,3.92
2023-03-06T07:57:23.371Z,3.96
2023-03-06T07:58:22.620Z,3.97
2023-03-06T08:00:26.457Z,4.03
2023-03-06T08:01:29.068Z,4.04
2023-03-06T08:02:29.633Z,4.07
2023-03-06T08:03:25.847Z,4.10
2023-03-06T08:04:25.317Z,4.06
2023-03-06T08:05:30.174Z,4.07
2023-03-06T08:06:48.570Z,3.92
2023-03-06T08:07:37.004Z,3.89
2023-03-06T08:08:47.156Z,3.86
2023-03-06T08:09:37.351Z,3.85
2023-03-06T08:11:31.430Z,3.80
2023-03-06T08:14:01.132Z,3.90
2023-03-06T08:14:49.620Z,3.97
2023-03-06T08:17:38.779Z,4.06
2023-03-06T08:18:33.639Z,4.06
2023-03-06T08:19:51.834Z,4.01
2023-03-06T08:20:28.644Z,4.04
2023-03-06T08:21:40.907Z,4.06
2023-03-06T08:22:43.522Z,4.07
2023-03-06T08:23:31.321Z,4.01
2023-03-06T08:24:28.281Z,4.01
2023-03-06T08:25:55.143Z,4.00
2023-03-06T08:26:32.870Z,4.03
2023-03-06T08:27:31.975Z,4.07
2023-03-06T08:29:49.603Z,4.08
2023-03-06T08:30:41.594Z,4.08
2023-03-06T08:31:40.219Z,4.03
2023-03-06T08:33:43.062Z,3.94
2023-03-06T08:34:34.366Z,3.90
2023-03-06T08:35:47.408Z,3.96
2023-03-06T08:36:31.618Z,3.97
2023-03-06T08:37:35.269Z,3.96
2023-03-06T08:38:43.316Z,3.94
2023-03-06T08:39:32.052Z,3.94
2023-03-06T08:40:31.131Z,3.85
2023-03-06T08:41:37.095Z,3.85
2023-03-06T08:42:34.511Z,3.88
2023-03-06T08:43:41.440Z,3.92
2023-03-06T08:44:36.882Z,3.92
2023-03-06T08:45:35.186Z,3.98
2023-03-06T08:47:01.709Z,4.03
2023-03-06T08:48:00.464Z,4.01
2023-03-06T08:48:59.843Z,4.04
2023-03-06T08:50:03.504Z,4.03
2023-03-06T08:51:01.643Z,4.03
2023-03-06T08:52:03.132Z,4.03
2023-03-06T08:53:03.557Z,4.00
2023-03-06T08:54:05.651Z,3.90
2023-03-06T08:55:05.301Z,3.90
2023-03-06T08:56:04.387Z,3.88
2023-03-06T08:57:04.954Z,3.88
2023-03-06T08:58:34.356Z,3.92
2023-03-06T08:59:37.572Z,3.94
2023-03-06T09:00:36.069Z,4.00
2023-03-06T09:01:36.110Z,4.00
2023-03-06T09:02:36.835Z,4.03
2023-03-06T09:03:46.477Z,4.03
2023-03-06T09:04:38.573Z,4.01
2023-03-06T09:05:38.742Z,4.00
2023-03-06T09:07:43.158Z,3.96
2023-03-06T09:09:41.011Z,3.86
2023-03-06T09:13:54.167Z,3.68
2023-03-06T09:14:38.253Z,3.70
2023-03-06T09:20:43.988Z,3.68
2023-03-06T09:21:53.617Z,3.71
2023-03-06T09:22:41.123Z,3.70
2023-03-06T09:23:41.064Z,3.71
2023-03-06T09:24:48.125Z,3.76
2023-03-06T09:25:40.574Z,3.78
2023-03-06T09:26:46.664Z,3.83
2023-03-06T09:28:36.973Z,3.83
2023-03-06T09:29:01.150Z,3.82
2023-03-06T09:30:03.543Z,3.82
2023-03-06T09:30:59.241Z,3.78
2023-03-06T09:33:20.849Z,3.83
2023-03-06T09:34:57.307Z,3.89
2023-03-06T09:36:03.146Z,3.89
2023-03-06T09:37:58.074Z,3.92
2023-03-06T09:39:00.906Z,3.97
2023-03-06T09:40:00.203Z,3.94
2023-03-06T09:41:03.913Z,3.94
2023-03-06T09:41:59.522Z,3.89
2023-03-06T09:43:02.833Z,3.86
2023-03-06T09:43:59.302Z,3.88
2023-03-06T09:45:26.328Z,3.89
2023-03-06T09:46:14.010Z,3.94
2023-03-06T09:47:04.478Z,4.00
2023-03-06T09:47:59.915Z,4.00
2023-03-06T09:48:58.824Z,4.01
2023-03-06T09:50:04.149Z,4.03
2023-03-06T09:50:59.729Z,4.03
2023-03-06T09:52:00.403Z,4.10
2023-03-06T09:53:14.370Z,4.21
2023-03-06T09:54:03.610Z,4.24
2023-03-06T09:55:01.389Z,4.28
2023-03-06T09:56:02.106Z,4.39
2023-03-06T09:57:02.361Z,4.46
2023-03-06T09:58:04.999Z,4.54
2023-03-06T09:59:12.154Z,4.58
2023-03-06T10:00:06.892Z,4.61
2023-03-06T10:01:02.427Z,4.62
2023-03-06T10:03:10.521Z,4.69
2023-03-06T10:04:25.126Z,4.72
2023-03-06T10:06:11.100Z,4.77
2023-03-06T10:07:23.212Z,4.76
2023-03-06T10:08:08.161Z,4.77
2023-03-06T10:09:04.614Z,4.80
2023-03-06T10:10:05.348Z,4.83
2023-03-06T10:11:05.817Z,4.76
2023-03-06T10:12:04.855Z,4.75
2023-03-06T10:13:05.624Z,4.72
2023-03-06T10:14:10.940Z,4.72
2023-03-06T10:15:08.672Z,4.69
2023-03-06T10:16:08.394Z,4.59
2023-03-06T10:20:11.476Z,4.44
2023-03-06T10:21:19.134Z,4.43
2023-03-06T10:22:14.771Z,4.40
2023-03-06T10:37:16.411Z,4.08
2023-03-06T10:38:11.177Z,4.04
2023-03-06T10:39:13.377Z,4.04
2023-03-06T10:40:14.474Z,4.06
2023-03-06T10:41:22.240Z,4.06
2023-03-06T10:42:20.872Z,4.06
2023-03-06T10:43:13.254Z,4.12
2023-03-06T10:44:26.130Z,4.15
2023-03-06T10:45:16.652Z,4.19
2023-03-06T10:46:12.605Z,4.24
2023-03-06T10:47:14.778Z,4.24
2023-03-06T10:48:22.311Z,4.22
2023-03-06T10:49:14.242Z,4.18
2023-03-06T10:50:20.845Z,4.16
2023-03-06T10:51:18.740Z,4.15
2023-03-06T10:52:17.970Z,4.15
2023-03-06T10:55:42.036Z,4.16
2023-03-06T10:56:18.884Z,4.16
2023-03-06T10:59:17.963Z,4.25
2023-03-06T11:00:21.925Z,4.32
2023-03-06T11:01:18.187Z,4.34
2023-03-06T11:02:20.584Z,4.32
2023-03-06T11:03:30.831Z,4.25
2023-03-06T11:05:38.314Z,4.06
2023-03-06T11:06:35.464Z,3.97
2023-03-06T11:09:25.625Z,3.76
2023-03-06T11:10:26.472Z,3.70
2023-03-06T11:12:36.065Z,3.76
2023-03-06T11:15:29.110Z,3.90
2023-03-06T11:17:34.921Z,4.03
2023-03-06T11:19:25.273Z,4.00
2023-03-06T11:20:50.146Z,4.07
2023-03-06T11:21:45.657Z,4.14
2023-03-06T11:24:22.631Z,4.25
2023-03-06T11:27:09.343Z,4.22
2023-03-06T11:28:04.630Z,4.21
2023-03-06T11:29:12.215Z,4.18
2023-03-06T11:31:06.203Z,4.21
2023-03-06T11:32:27.257Z,4.21
2023-03-06T11:33:18.113Z,4.26
2023-03-06T11:34:15.717Z,4.32
2023-03-06T11:35:12.326Z,4.34
2023-03-06T11:36:07.141Z,4.37
2023-03-06T11:39:15.498Z,4.34
2023-03-06T11:40:07.885Z,4.37
2023-03-06T11:41:21.566Z,4.32
2023-03-06T11:42:12.081Z,4.29
2023-03-06T11:44:10.743Z,4.26
2023-03-06T11:45:18.855Z,4.26
2023-03-06T11:46:13.734Z,4.25
2023-03-06T11:47:10.111Z,4.29
2023-03-06T11:48:08.976Z,4.26
2023-03-06T11:49:11.648Z,4.22
2023-03-06T11:50:13.282Z,4.21
2023-03-06T11:51:25.575Z,4.19
2023-03-06T11:52:21.394Z,4.16
2023-03-06T11:53:31.306Z,4.19
2023-03-06T11:56:22.010Z,4.07
2023-03-06T11:57:27.962Z,4.10
2023-03-06T11:58:20.570Z,4.06
2023-03-06T11:59:12.215Z,4.00
2023-03-06T12:00:13.718Z,4.04
2023-03-06T12:01:14.501Z,4.12
2023-03-06T12:02:14.852Z,4.18
2023-03-06T12:03:12.658Z,4.21
2023-03-06T12:04:12.737Z,4.22
2023-03-06T12:05:12.581Z,4.25
2023-03-06T12:06:16.116Z,4.32
2023-03-06T12:07:12.910Z,4.36
2023-03-06T12:08:14.285Z,4.36
2023-03-06T12:09:14.846Z,4.29
2023-03-06T12:10:21.175Z,4.28
2023-03-06T12:11:12.972Z,4.26
2023-03-06T12:13:13.478Z,4.18
2023-03-06T12:14:14.478Z,4.21
2023-03-06T12:15:13.501Z,4.24
2023-03-06T12:16:17.317Z,4.28
2023-03-06T12:17:16.639Z,4.29
2023-03-06T12:18:15.469Z,4.29
2023-03-06T12:19:15.442Z,4.28
2023-03-06T12:20:19.312Z,4.25
2023-03-06T12:21:17.911Z,4.26
2023-03-06T12:22:49.508Z,4.28
2023-03-06T12:23:17.431Z,4.26
2023-03-06T12:24:20.415Z,4.21
2023-03-06T12:25:34.969Z,4.18
2023-03-06T12:26:20.338Z,4.08
2023-03-06T12:27:26.652Z,4.06
2023-03-06T12:28:37.437Z,4.03
2023-03-06T12:29:25.831Z,3.94
2023-03-06T12:30:20.112Z,3.86
2023-03-06T12:31:21.859Z,3.78
2023-03-06T12:32:21.040Z,3.64
2023-03-06T12:33:18.632Z,3.52
2023-03-06T12:34:19.879Z,3.40
2023-03-06T12:35:21.714Z,3.31
2023-03-06T12:36:20.930Z,3.23
2023-03-06T12:37:20.812Z,3.12
2023-03-06T12:38:22.314Z,2.97
2023-03-06T12:39:19.609Z,2.87
2023-03-06T12:40:23.835Z,2.70
2023-03-06T12:41:23.131Z,2.64
2023-03-06T12:42:28.472Z,2.56
2023-03-06T12:43:21.012Z,2.40
2023-03-06T12:44:28.864Z,2.30
2023-03-06T12:46:28.362Z,2.15
2023-03-06T12:47:25.292Z,2.12
2023-03-06T12:48:25.233Z,2.15
2023-03-06T12:49:34.041Z,2.23
2023-03-06T12:50:31.796Z,2.37
2023-03-06T12:51:28.502Z,2.61
2023-03-06T12:52:38.613Z,2.77
2023-03-06T12:53:28.376Z,2.91
2023-03-06T12:55:28.742Z,3.78
2023-03-06T12:56:41.781Z,4.24
2023-03-06T12:57:32.026Z,4.58
2023-03-06T12:58:28.256Z,4.91
2023-03-06T12:59:24.360Z,5.16
2023-03-06T13:00:24.053Z,5.13
2023-03-06T13:01:25.833Z,4.95
2023-03-06T13:02:28.790Z,4.79
2023-03-06T13:03:30.454Z,4.92
2023-03-06T13:04:33.034Z,4.92
2023-03-06T13:05:36.345Z,4.79
2023-03-06T13:07:32.111Z,4.62
2023-03-06T13:09:31.423Z,4.52
2023-03-06T13:11:26.583Z,4.84
2023-03-06T13:13:01.277Z,5.07
2023-03-06T13:13:33.941Z,5.13
2023-03-06T13:14:48.798Z,5.13
2023-03-06T13:15:28.774Z,5.09
2023-03-06T13:16:35.485Z,5.12
2023-03-06T13:17:29.478Z,5.20
2023-03-06T13:20:47.231Z,5.20
2023-03-06T13:22:34.162Z,5.41
2023-03-06T13:23:37.091Z,5.41
2023-03-06T13:24:31.606Z,5.48
2023-03-06T13:25:34.817Z,5.53
2023-03-06T13:26:38.699Z,5.50
2023-03-06T13:28:33.926Z,5.77
2023-03-06T13:29:33.932Z,6.06
2023-03-06T13:30:31.825Z,6.25
2023-03-06T13:31:41.886Z,6.11
2023-03-06T13:32:34.243Z,5.95
2023-03-06T13:33:35.249Z,5.83
2023-03-06T13:34:32.329Z,5.95
2023-03-06T13:35:33.680Z,6.11
2023-03-06T13:36:35.496Z,6.26
2023-03-06T13:37:35.117Z,6.36
2023-03-06T13:38:32.507Z,6.77
2023-03-06T13:39:35.751Z,7.16
2023-03-06T13:40:34.424Z,7.37
2023-03-06T13:41:38.472Z,7.41
2023-03-06T13:42:36.452Z,7.50
2023-03-06T13:43:44.432Z,7.32
2023-03-06T13:44:37.655Z,7.22
2023-03-06T13:45:37.355Z,7.20
2023-03-06T13:46:48.538Z,7.07
2023-03-06T13:47:59.034Z,6.94
2023-03-06T13:49:39.536Z,6.53
2023-03-06T13:50:37.451Z,6.63
2023-03-06T13:51:37.520Z,6.63
2023-03-06T13:52:43.347Z,6.66
2023-03-06T13:53:37.427Z,6.65
2023-03-06T13:55:55.253Z,6.51
2023-03-06T13:56:15.648Z,6.11
2023-03-06T13:57:15.204Z,5.89
2023-03-06T13:58:14.351Z,5.63
2023-03-06T13:59:14.359Z,5.38
2023-03-06T14:00:14.769Z,5.14
2023-03-06T14:01:14.968Z,4.98
2023-03-06T14:02:14.545Z,4.83
2023-03-06T14:03:14.949Z,4.69
2023-03-06T14:04:14.938Z,4.57
2023-03-06T14:05:21.514Z,4.47
2023-03-06T14:06:16.916Z,4.36
2023-03-06T14:07:16.371Z,4.29
2023-03-06T14:08:15.999Z,4.22
2023-03-06T14:09:16.158Z,4.19
2023-03-06T14:10:16.499Z,4.16
2023-03-06T14:11:16.340Z,4.10
2023-03-06T14:12:17.137Z,4.00
2023-03-06T14:13:17.234Z,3.96
2023-03-06T14:14:16.254Z,3.89
2023-03-06T14:15:16.534Z,3.85
2023-03-06T14:16:17.562Z,3.78
2023-03-06T14:17:16.733Z,3.68
2023-03-06T14:18:17.272Z,3.54
2023-03-06T14:19:17.970Z,3.46
2023-03-06T14:20:20.111Z,3.42
2023-03-06T14:21:18.015Z,3.39
2023-03-06T14:22:18.692Z,3.34
2023-03-06T14:23:18.857Z,3.30
2023-03-06T14:24:17.958Z,3.27
2023-03-06T14:26:18.692Z,3.27
2023-03-06T14:27:24.398Z,3.25
2023-03-06T14:28:19.648Z,3.25
2023-03-06T14:29:20.084Z,3.21
2023-03-06T14:30:20.158Z,3.21
2023-03-06T14:31:22.032Z,3.16
2023-03-06T14:32:20.704Z,3.12
2023-03-06T14:33:21.508Z,3.10
2023-03-06T14:34:21.362Z,3.07
2023-03-06T14:35:26.647Z,3.06
2023-03-06T14:36:21.209Z,3.07
2023-03-06T14:37:23.912Z,3.05
2023-03-06T14:38:22.854Z,3.06
2023-03-06T14:39:22.615Z,3.06
2023-03-06T14:40:22.680Z,3.00
2023-03-06T14:41:22.656Z,2.94
2023-03-06T14:42:23.458Z,2.95
2023-03-06T14:43:25.332Z,2.95
2023-03-06T14:44:23.721Z,2.97
2023-03-06T14:45:26.298Z,3.00
2023-03-06T14:46:24.461Z,3.05